sensor_id;sensor_type;location;lat;lon;timestamp;P1;durP1;ratioP1;P2;durP2;ratioP2
72125;SDS011;59999;51.676;22.650;2022-09-03T00:00:36;6.65;;;1.58;;
72125;SDS011;59999;51.676;22.650;2022-09-03T00:03:17;5.45;;;1.73;;
72125;SDS011;59999;51.676;22.650;2022-09-03T00:09:04;5.35;;;1.73;;
72125;SDS011;59999;51.676;22.650;2022-09-03T00:11:39;6.15;;;2.03;;
72125;SDS011;59999;51.676;22.650;2022-09-03T00:14:24;6.65;;;1.90;;
72125;SDS011;59999;51.676;22.650;2022-09-03T00:17:02;7.15;;;2.20;;
72125;SDS011;59999;51.676;22.650;2022-09-03T00:19:35;7.85;;;2.05;;
72125;SDS011;59999;51.676;22.650;2022-09-03T00:22:09;5.28;;;2.03;;
72125;SDS011;59999;51.676;22.650;2022-09-03T00:24:43;7.35;;;2.22;;
72125;SDS011;59999;51.676;22.650;2022-09-03T00:27:12;8.23;;;2.38;;
72125;SDS011;59999;51.676;22.650;2022-09-03T00:29:44;6.82;;;2.30;;
72125;SDS011;59999;51.676;22.650;2022-09-03T00:32:15;6.35;;;2.20;;
72125;SDS011;59999;51.676;22.650;2022-09-03T00:34:47;6.07;;;1.95;;
72125;SDS011;59999;51.676;22.650;2022-09-03T00:37:17;8.23;;;2.22;;
72125;SDS011;59999;51.676;22.650;2022-09-03T00:39:43;6.70;;;1.92;;
72125;SDS011;59999;51.676;22.650;2022-09-03T00:45:08;8.15;;;2.20;;
72125;SDS011;59999;51.676;22.650;2022-09-03T00:47:56;6.15;;;1.98;;
72125;SDS011;59999;51.676;22.650;2022-09-03T00:53:50;7.15;;;2.30;;
72125;SDS011;59999;51.676;22.650;2022-09-03T00:56:38;6.77;;;2.40;;
72125;SDS011;59999;51.676;22.650;2022-09-03T01:02:26;6.68;;;2.13;;
72125;SDS011;59999;51.676;22.650;2022-09-03T01:05:27;7.97;;;1.98;;
72125;SDS011;59999;51.676;22.650;2022-09-03T01:08:08;7.03;;;1.83;;
72125;SDS011;59999;51.676;22.650;2022-09-03T01:13:49;7.95;;;2.10;;
72125;SDS011;59999;51.676;22.650;2022-09-03T01:22:03;8.55;;;2.60;;
72125;SDS011;59999;51.676;22.650;2022-09-03T01:25:11;5.87;;;1.80;;
72125;SDS011;59999;51.676;22.650;2022-09-03T01:27:56;8.07;;;2.00;;
72125;SDS011;59999;51.676;22.650;2022-09-03T01:30:44;8.10;;;2.10;;
72125;SDS011;59999;51.676;22.650;2022-09-03T01:33:26;7.40;;;2.28;;
72125;SDS011;59999;51.676;22.650;2022-09-03T01:38:40;7.47;;;2.40;;
72125;SDS011;59999;51.676;22.650;2022-09-03T01:44:41;7.07;;;2.00;;
72125;SDS011;59999;51.676;22.650;2022-09-03T01:47:55;6.75;;;1.80;;
72125;SDS011;59999;51.676;22.650;2022-09-03T01:58:29;6.47;;;2.00;;
72125;SDS011;59999;51.676;22.650;2022-09-03T02:01:10;8.60;;;2.10;;
72125;SDS011;59999;51.676;22.650;2022-09-03T02:03:42;6.63;;;1.95;;
72125;SDS011;59999;51.676;22.650;2022-09-03T02:06:10;6.23;;;1.97;;
72125;SDS011;59999;51.676;22.650;2022-09-03T02:08:36;5.45;;;1.90;;
72125;SDS011;59999;51.676;22.650;2022-09-03T02:11:04;5.50;;;1.90;;
72125;SDS011;59999;51.676;22.650;2022-09-03T02:16:22;6.68;;;2.10;;
72125;SDS011;59999;51.676;22.650;2022-09-03T02:19:06;5.77;;;1.93;;
72125;SDS011;59999;51.676;22.650;2022-09-03T02:21:37;6.20;;;2.13;;
72125;SDS011;59999;51.676;22.650;2022-09-03T02:24:05;9.85;;;2.50;;
72125;SDS011;59999;51.676;22.650;2022-09-03T02:26:32;6.65;;;2.22;;
72125;SDS011;59999;51.676;22.650;2022-09-03T02:29:00;6.25;;;2.30;;
72125;SDS011;59999;51.676;22.650;2022-09-03T02:31:27;8.53;;;2.00;;
72125;SDS011;59999;51.676;22.650;2022-09-03T02:33:53;7.88;;;2.15;;
72125;SDS011;59999;51.676;22.650;2022-09-03T02:36:29;6.28;;;1.88;;
72125;SDS011;59999;51.676;22.650;2022-09-03T02:39:00;6.32;;;2.00;;
72125;SDS011;59999;51.676;22.650;2022-09-03T02:41:26;6.57;;;1.95;;
72125;SDS011;59999;51.676;22.650;2022-09-03T02:43:58;7.03;;;2.07;;
72125;SDS011;59999;51.676;22.650;2022-09-03T02:47:17;6.25;;;1.80;;
72125;SDS011;59999;51.676;22.650;2022-09-03T02:49:25;6.47;;;2.00;;
72125;SDS011;59999;51.676;22.650;2022-09-03T02:51:56;6.63;;;1.90;;
72125;SDS011;59999;51.676;22.650;2022-09-03T02:54:25;6.97;;;1.65;;
72125;SDS011;59999;51.676;22.650;2022-09-03T02:56:52;6.35;;;1.77;;
72125;SDS011;59999;51.676;22.650;2022-09-03T02:59:19;6.25;;;1.58;;
72125;SDS011;59999;51.676;22.650;2022-09-03T03:01:47;6.03;;;1.67;;
72125;SDS011;59999;51.676;22.650;2022-09-03T03:04:13;5.93;;;2.05;;
72125;SDS011;59999;51.676;22.650;2022-09-03T03:06:39;5.43;;;2.00;;
72125;SDS011;59999;51.676;22.650;2022-09-03T03:09:05;6.40;;;2.00;;
72125;SDS011;59999;51.676;22.650;2022-09-03T03:11:32;6.80;;;1.90;;
72125;SDS011;59999;51.676;22.650;2022-09-03T03:13:59;6.30;;;2.03;;
72125;SDS011;59999;51.676;22.650;2022-09-03T03:16:25;8.53;;;2.17;;
72125;SDS011;59999;51.676;22.650;2022-09-03T03:18:51;8.07;;;2.15;;
72125;SDS011;59999;51.676;22.650;2022-09-03T03:21:18;6.63;;;2.25;;
72125;SDS011;59999;51.676;22.650;2022-09-03T03:23:44;8.90;;;2.55;;
72125;SDS011;59999;51.676;22.650;2022-09-03T03:26:11;6.63;;;2.10;;
72125;SDS011;59999;51.676;22.650;2022-09-03T03:28:40;6.53;;;2.00;;
72125;SDS011;59999;51.676;22.650;2022-09-03T03:31:07;8.18;;;2.30;;
72125;SDS011;59999;51.676;22.650;2022-09-03T03:33:34;7.50;;;2.00;;
72125;SDS011;59999;51.676;22.650;2022-09-03T03:36:08;6.70;;;2.13;;
72125;SDS011;59999;51.676;22.650;2022-09-03T03:38:39;7.10;;;2.03;;
72125;SDS011;59999;51.676;22.650;2022-09-03T03:41:14;5.55;;;1.95;;
72125;SDS011;59999;51.676;22.650;2022-09-03T03:43:41;6.88;;;2.33;;
72125;SDS011;59999;51.676;22.650;2022-09-03T03:46:08;7.57;;;2.25;;
72125;SDS011;59999;51.676;22.650;2022-09-03T03:48:35;8.02;;;2.50;;
72125;SDS011;59999;51.676;22.650;2022-09-03T03:51:03;7.47;;;2.43;;
72125;SDS011;59999;51.676;22.650;2022-09-03T03:53:31;7.35;;;2.22;;
72125;SDS011;59999;51.676;22.650;2022-09-03T03:56:02;7.85;;;2.22;;
72125;SDS011;59999;51.676;22.650;2022-09-03T03:58:31;7.05;;;2.20;;
72125;SDS011;59999;51.676;22.650;2022-09-03T04:01:11;6.93;;;2.40;;
72125;SDS011;59999;51.676;22.650;2022-09-03T04:03:38;7.47;;;2.30;;
72125;SDS011;59999;51.676;22.650;2022-09-03T04:06:06;8.13;;;2.80;;
72125;SDS011;59999;51.676;22.650;2022-09-03T04:08:33;6.43;;;2.40;;
72125;SDS011;59999;51.676;22.650;2022-09-03T04:11:01;7.60;;;2.55;;
72125;SDS011;59999;51.676;22.650;2022-09-03T04:13:35;7.82;;;2.40;;
72125;SDS011;59999;51.676;22.650;2022-09-03T04:16:07;9.10;;;2.60;;
72125;SDS011;59999;51.676;22.650;2022-09-03T04:18:35;7.13;;;2.53;;
72125;SDS011;59999;51.676;22.650;2022-09-03T04:21:16;8.85;;;2.80;;
72125;SDS011;59999;51.676;22.650;2022-09-03T04:23:45;6.38;;;2.60;;
72125;SDS011;59999;51.676;22.650;2022-09-03T04:26:13;6.97;;;2.47;;
72125;SDS011;59999;51.676;22.650;2022-09-03T04:28:41;8.23;;;2.43;;
72125;SDS011;59999;51.676;22.650;2022-09-03T04:31:09;7.72;;;2.88;;
72125;SDS011;59999;51.676;22.650;2022-09-03T04:33:36;9.30;;;2.92;;
72125;SDS011;59999;51.676;22.650;2022-09-03T04:36:07;8.73;;;2.40;;
72125;SDS011;59999;51.676;22.650;2022-09-03T04:38:38;6.93;;;2.45;;
72125;SDS011;59999;51.676;22.650;2022-09-03T04:41:08;7.53;;;3.17;;
72125;SDS011;59999;51.676;22.650;2022-09-03T04:43:35;9.68;;;2.95;;
72125;SDS011;59999;51.676;22.650;2022-09-03T04:46:05;7.63;;;3.25;;
72125;SDS011;59999;51.676;22.650;2022-09-03T04:48:33;7.72;;;3.00;;
72125;SDS011;59999;51.676;22.650;2022-09-03T04:51:10;7.22;;;3.15;;
72125;SDS011;59999;51.676;22.650;2022-09-03T04:53:39;8.40;;;3.27;;
72125;SDS011;59999;51.676;22.650;2022-09-03T04:56:16;11.43;;;3.13;;
72125;SDS011;59999;51.676;22.650;2022-09-03T04:58:43;9.05;;;3.35;;
72125;SDS011;59999;51.676;22.650;2022-09-03T05:01:10;10.70;;;3.17;;
72125;SDS011;59999;51.676;22.650;2022-09-03T05:03:36;7.70;;;3.35;;
72125;SDS011;59999;51.676;22.650;2022-09-03T05:06:03;8.47;;;2.63;;
72125;SDS011;59999;51.676;22.650;2022-09-03T05:08:30;9.32;;;3.38;;
72125;SDS011;59999;51.676;22.650;2022-09-03T05:10:57;10.02;;;4.05;;
72125;SDS011;59999;51.676;22.650;2022-09-03T05:13:25;8.75;;;3.33;;
72125;SDS011;59999;51.676;22.650;2022-09-03T05:15:51;9.25;;;3.17;;
72125;SDS011;59999;51.676;22.650;2022-09-03T05:18:18;8.07;;;3.23;;
72125;SDS011;59999;51.676;22.650;2022-09-03T05:20:44;10.57;;;3.20;;
72125;SDS011;59999;51.676;22.650;2022-09-03T05:23:10;9.45;;;3.38;;
72125;SDS011;59999;51.676;22.650;2022-09-03T05:25:35;9.13;;;3.33;;
72125;SDS011;59999;51.676;22.650;2022-09-03T05:28:02;7.63;;;3.00;;
72125;SDS011;59999;51.676;22.650;2022-09-03T05:30:29;9.57;;;2.80;;
72125;SDS011;59999;51.676;22.650;2022-09-03T05:32:55;9.57;;;3.40;;
72125;SDS011;59999;51.676;22.650;2022-09-03T05:35:22;8.80;;;2.83;;
72125;SDS011;59999;51.676;22.650;2022-09-03T05:37:48;8.53;;;2.97;;
72125;SDS011;59999;51.676;22.650;2022-09-03T05:40:13;9.15;;;3.28;;
72125;SDS011;59999;51.676;22.650;2022-09-03T05:42:39;7.88;;;3.15;;
72125;SDS011;59999;51.676;22.650;2022-09-03T05:45:06;9.77;;;2.97;;
72125;SDS011;59999;51.676;22.650;2022-09-03T05:47:35;7.88;;;3.30;;
72125;SDS011;59999;51.676;22.650;2022-09-03T05:50:06;7.22;;;2.65;;
72125;SDS011;59999;51.676;22.650;2022-09-03T05:52:35;8.32;;;3.28;;
72125;SDS011;59999;51.676;22.650;2022-09-03T05:55:02;8.00;;;2.70;;
72125;SDS011;59999;51.676;22.650;2022-09-03T05:57:29;9.38;;;3.47;;
72125;SDS011;59999;51.676;22.650;2022-09-03T05:59:55;8.48;;;3.00;;
72125;SDS011;59999;51.676;22.650;2022-09-03T06:02:21;8.95;;;2.70;;
72125;SDS011;59999;51.676;22.650;2022-09-03T06:04:48;8.98;;;2.80;;
72125;SDS011;59999;51.676;22.650;2022-09-03T06:07:15;9.77;;;3.10;;
72125;SDS011;59999;51.676;22.650;2022-09-03T06:09:41;6.75;;;2.95;;
72125;SDS011;59999;51.676;22.650;2022-09-03T06:12:07;8.57;;;2.72;;
72125;SDS011;59999;51.676;22.650;2022-09-03T06:14:33;8.10;;;2.60;;
72125;SDS011;59999;51.676;22.650;2022-09-03T06:16:59;7.07;;;2.60;;
72125;SDS011;59999;51.676;22.650;2022-09-03T06:19:25;8.25;;;2.90;;
72125;SDS011;59999;51.676;22.650;2022-09-03T06:21:51;7.35;;;2.47;;
72125;SDS011;59999;51.676;22.650;2022-09-03T06:24:18;7.87;;;2.70;;
72125;SDS011;59999;51.676;22.650;2022-09-03T06:26:47;8.50;;;2.60;;
72125;SDS011;59999;51.676;22.650;2022-09-03T06:29:14;7.18;;;2.60;;
72125;SDS011;59999;51.676;22.650;2022-09-03T06:31:41;6.70;;;2.60;;
72125;SDS011;59999;51.676;22.650;2022-09-03T06:34:07;8.18;;;2.80;;
72125;SDS011;59999;51.676;22.650;2022-09-03T06:36:33;9.67;;;2.53;;
72125;SDS011;59999;51.676;22.650;2022-09-03T06:38:59;8.10;;;3.03;;
72125;SDS011;59999;51.676;22.650;2022-09-03T06:41:27;6.55;;;2.50;;
72125;SDS011;59999;51.676;22.650;2022-09-03T06:43:58;7.63;;;2.63;;
72125;SDS011;59999;51.676;22.650;2022-09-03T06:46:30;5.90;;;2.23;;
72125;SDS011;59999;51.676;22.650;2022-09-03T06:48:57;6.25;;;2.38;;
72125;SDS011;59999;51.676;22.650;2022-09-03T06:51:24;8.88;;;3.08;;
72125;SDS011;59999;51.676;22.650;2022-09-03T06:53:53;6.65;;;2.13;;
72125;SDS011;59999;51.676;22.650;2022-09-03T06:56:29;7.40;;;2.33;;
72125;SDS011;59999;51.676;22.650;2022-09-03T06:58:58;6.70;;;2.30;;
72125;SDS011;59999;51.676;22.650;2022-09-03T07:01:28;6.60;;;2.40;;
72125;SDS011;59999;51.676;22.650;2022-09-03T07:03:57;9.82;;;2.22;;
72125;SDS011;59999;51.676;22.650;2022-09-03T07:06:26;7.38;;;2.40;;
72125;SDS011;59999;51.676;22.650;2022-09-03T07:08:54;5.88;;;2.50;;
72125;SDS011;59999;51.676;22.650;2022-09-03T07:11:23;6.77;;;2.60;;
72125;SDS011;59999;51.676;22.650;2022-09-03T07:13:52;10.70;;;2.88;;
72125;SDS011;59999;51.676;22.650;2022-09-03T07:16:21;9.30;;;2.58;;
72125;SDS011;59999;51.676;22.650;2022-09-03T07:18:48;5.93;;;1.77;;
72125;SDS011;59999;51.676;22.650;2022-09-03T07:21:16;5.35;;;1.95;;
72125;SDS011;59999;51.676;22.650;2022-09-03T07:23:44;5.20;;;1.90;;
72125;SDS011;59999;51.676;22.650;2022-09-03T07:26:12;6.40;;;1.90;;
72125;SDS011;59999;51.676;22.650;2022-09-03T07:28:40;7.25;;;2.03;;
72125;SDS011;59999;51.676;22.650;2022-09-03T07:31:09;7.43;;;1.88;;
72125;SDS011;59999;51.676;22.650;2022-09-03T07:33:40;6.80;;;1.75;;
72125;SDS011;59999;51.676;22.650;2022-09-03T07:36:08;5.50;;;1.80;;
72125;SDS011;59999;51.676;22.650;2022-09-03T07:38:36;7.15;;;1.50;;
72125;SDS011;59999;51.676;22.650;2022-09-03T07:41:03;6.82;;;1.60;;
72125;SDS011;59999;51.676;22.650;2022-09-03T07:43:35;6.25;;;2.00;;
72125;SDS011;59999;51.676;22.650;2022-09-03T07:46:06;6.75;;;1.70;;
72125;SDS011;59999;51.676;22.650;2022-09-03T07:48:33;6.23;;;1.80;;
72125;SDS011;59999;51.676;22.650;2022-09-03T07:50:59;6.18;;;1.83;;
72125;SDS011;59999;51.676;22.650;2022-09-03T07:53:27;5.80;;;1.65;;
72125;SDS011;59999;51.676;22.650;2022-09-03T07:55:54;7.35;;;2.13;;
72125;SDS011;59999;51.676;22.650;2022-09-03T07:58:30;5.20;;;1.60;;
72125;SDS011;59999;51.676;22.650;2022-09-03T08:01:02;5.27;;;1.80;;
72125;SDS011;59999;51.676;22.650;2022-09-03T08:03:35;5.80;;;1.70;;
72125;SDS011;59999;51.676;22.650;2022-09-03T08:06:03;5.63;;;1.70;;
72125;SDS011;59999;51.676;22.650;2022-09-03T08:08:31;5.20;;;1.55;;
72125;SDS011;59999;51.676;22.650;2022-09-03T08:11:08;6.00;;;2.03;;
72125;SDS011;59999;51.676;22.650;2022-09-03T08:13:38;7.63;;;2.10;;
72125;SDS011;59999;51.676;22.650;2022-09-03T08:16:19;4.97;;;1.75;;
72125;SDS011;59999;51.676;22.650;2022-09-03T08:18:45;4.50;;;1.48;;
72125;SDS011;59999;51.676;22.650;2022-09-03T08:21:13;5.47;;;2.03;;
72125;SDS011;59999;51.676;22.650;2022-09-03T08:23:41;5.38;;;1.90;;
72125;SDS011;59999;51.676;22.650;2022-09-03T08:26:08;6.20;;;2.33;;
72125;SDS011;59999;51.676;22.650;2022-09-03T08:28:35;4.68;;;1.88;;
72125;SDS011;59999;51.676;22.650;2022-09-03T08:31:12;6.63;;;2.00;;
72125;SDS011;59999;51.676;22.650;2022-09-03T08:33:41;5.07;;;1.83;;
72125;SDS011;59999;51.676;22.650;2022-09-03T08:38:43;5.83;;;1.73;;
72125;SDS011;59999;51.676;22.650;2022-09-03T08:41:17;5.15;;;2.05;;
72125;SDS011;59999;51.676;22.650;2022-09-03T08:49:42;5.95;;;2.15;;
72125;SDS011;59999;51.676;22.650;2022-09-03T08:52:20;7.47;;;2.60;;
72125;SDS011;59999;51.676;22.650;2022-09-03T08:55:15;5.85;;;2.15;;
72125;SDS011;59999;51.676;22.650;2022-09-03T08:57:49;6.03;;;2.25;;
72125;SDS011;59999;51.676;22.650;2022-09-03T09:00:17;8.00;;;2.65;;
72125;SDS011;59999;51.676;22.650;2022-09-03T09:05:59;9.17;;;2.87;;
72125;SDS011;59999;51.676;22.650;2022-09-03T09:09:15;6.75;;;2.22;;
72125;SDS011;59999;51.676;22.650;2022-09-03T09:17:28;9.02;;;2.97;;
72125;SDS011;59999;51.676;22.650;2022-09-03T09:22:36;5.57;;;1.60;;
72125;SDS011;59999;51.676;22.650;2022-09-03T09:25:41;4.95;;;1.50;;
72125;SDS011;59999;51.676;22.650;2022-09-03T09:28:16;5.70;;;1.65;;
72125;SDS011;59999;51.676;22.650;2022-09-03T09:30:48;8.05;;;1.80;;
72125;SDS011;59999;51.676;22.650;2022-09-03T09:33:18;5.00;;;1.90;;
72125;SDS011;59999;51.676;22.650;2022-09-03T09:35:45;5.28;;;1.85;;
72125;SDS011;59999;51.676;22.650;2022-09-03T09:38:12;6.60;;;1.70;;
72125;SDS011;59999;51.676;22.650;2022-09-03T09:40:39;6.35;;;1.80;;
72125;SDS011;59999;51.676;22.650;2022-09-03T09:43:17;5.97;;;1.60;;
72125;SDS011;59999;51.676;22.650;2022-09-03T09:45:47;5.83;;;1.23;;
72125;SDS011;59999;51.676;22.650;2022-09-03T09:51:05;5.38;;;2.05;;
72125;SDS011;59999;51.676;22.650;2022-09-03T09:53:34;7.35;;;1.70;;
72125;SDS011;59999;51.676;22.650;2022-09-03T09:56:00;4.97;;;1.70;;
72125;SDS011;59999;51.676;22.650;2022-09-03T09:58:31;7.00;;;2.40;;
72125;SDS011;59999;51.676;22.650;2022-09-03T10:01:09;6.97;;;1.67;;
72125;SDS011;59999;51.676;22.650;2022-09-03T10:03:50;4.75;;;1.73;;
72125;SDS011;59999;51.676;22.650;2022-09-03T10:06:25;6.95;;;2.00;;
72125;SDS011;59999;51.676;22.650;2022-09-03T10:09:18;6.07;;;2.15;;
72125;SDS011;59999;51.676;22.650;2022-09-03T10:11:48;6.50;;;2.27;;
72125;SDS011;59999;51.676;22.650;2022-09-03T10:14:33;7.88;;;1.80;;
72125;SDS011;59999;51.676;22.650;2022-09-03T10:17:21;7.53;;;2.10;;
72125;SDS011;59999;51.676;22.650;2022-09-03T10:20:13;6.50;;;2.25;;
72125;SDS011;59999;51.676;22.650;2022-09-03T10:28:25;5.22;;;1.50;;
72125;SDS011;59999;51.676;22.650;2022-09-03T10:34:01;5.70;;;1.88;;
72125;SDS011;59999;51.676;22.650;2022-09-03T10:45:26;6.55;;;1.70;;
72125;SDS011;59999;51.676;22.650;2022-09-03T10:50:25;4.38;;;1.35;;
72125;SDS011;59999;51.676;22.650;2022-09-03T10:55:40;4.35;;;1.30;;
72125;SDS011;59999;51.676;22.650;2022-09-03T11:01:13;4.72;;;1.65;;
72125;SDS011;59999;51.676;22.650;2022-09-03T11:03:47;3.63;;;1.23;;
72125;SDS011;59999;51.676;22.650;2022-09-03T11:06:26;5.73;;;1.20;;
72125;SDS011;59999;51.676;22.650;2022-09-03T11:08:56;4.70;;;1.30;;
72125;SDS011;59999;51.676;22.650;2022-09-03T11:11:36;3.83;;;1.10;;
72125;SDS011;59999;51.676;22.650;2022-09-03T11:14:09;3.40;;;0.98;;
72125;SDS011;59999;51.676;22.650;2022-09-03T11:16:44;3.40;;;0.80;;
72125;SDS011;59999;51.676;22.650;2022-09-03T11:19:18;5.17;;;1.20;;
72125;SDS011;59999;51.676;22.650;2022-09-03T11:21:49;4.82;;;1.15;;
72125;SDS011;59999;51.676;22.650;2022-09-03T11:26:55;5.75;;;1.30;;
72125;SDS011;59999;51.676;22.650;2022-09-03T11:32:46;4.20;;;1.10;;
72125;SDS011;59999;51.676;22.650;2022-09-03T11:35:36;3.25;;;0.88;;
72125;SDS011;59999;51.676;22.650;2022-09-03T11:38:08;2.58;;;0.80;;
72125;SDS011;59999;51.676;22.650;2022-09-03T11:41:00;3.58;;;0.80;;
72125;SDS011;59999;51.676;22.650;2022-09-03T11:43:33;2.75;;;0.80;;
72125;SDS011;59999;51.676;22.650;2022-09-03T11:46:01;3.50;;;0.97;;
72125;SDS011;59999;51.676;22.650;2022-09-03T11:48:37;3.45;;;0.85;;
72125;SDS011;59999;51.676;22.650;2022-09-03T11:51:15;4.40;;;0.93;;
72125;SDS011;59999;51.676;22.650;2022-09-03T11:53:58;3.70;;;0.82;;
72125;SDS011;59999;51.676;22.650;2022-09-03T11:56:27;4.10;;;0.88;;
72125;SDS011;59999;51.676;22.650;2022-09-03T11:59:05;3.93;;;1.00;;
72125;SDS011;59999;51.676;22.650;2022-09-03T12:02:02;3.40;;;1.20;;
72125;SDS011;59999;51.676;22.650;2022-09-03T12:04:46;3.67;;;1.20;;
72125;SDS011;59999;51.676;22.650;2022-09-03T12:10:33;2.53;;;0.90;;
72125;SDS011;59999;51.676;22.650;2022-09-03T12:18:30;3.20;;;0.88;;
72125;SDS011;59999;51.676;22.650;2022-09-03T12:21:00;4.47;;;1.42;;
72125;SDS011;59999;51.676;22.650;2022-09-03T12:23:30;4.00;;;1.30;;
72125;SDS011;59999;51.676;22.650;2022-09-03T12:26:09;3.63;;;1.13;;
72125;SDS011;59999;51.676;22.650;2022-09-03T12:28:39;4.50;;;1.50;;
72125;SDS011;59999;51.676;22.650;2022-09-03T12:31:15;3.60;;;1.48;;
72125;SDS011;59999;51.676;22.650;2022-09-03T12:33:57;4.47;;;1.20;;
72125;SDS011;59999;51.676;22.650;2022-09-03T12:36:26;5.65;;;1.60;;
72125;SDS011;59999;51.676;22.650;2022-09-03T12:39:09;6.33;;;1.50;;
72125;SDS011;59999;51.676;22.650;2022-09-03T12:41:36;4.25;;;1.50;;
72125;SDS011;59999;51.676;22.650;2022-09-03T12:44:02;4.10;;;1.35;;
72125;SDS011;59999;51.676;22.650;2022-09-03T12:46:29;5.28;;;1.63;;
72125;SDS011;59999;51.676;22.650;2022-09-03T12:49:03;4.90;;;1.17;;
72125;SDS011;59999;51.676;22.650;2022-09-03T12:51:36;5.65;;;1.30;;
72125;SDS011;59999;51.676;22.650;2022-09-03T12:54:07;4.40;;;1.45;;
72125;SDS011;59999;51.676;22.650;2022-09-03T12:56:43;5.18;;;1.60;;
72125;SDS011;59999;51.676;22.650;2022-09-03T12:59:16;4.32;;;1.60;;
72125;SDS011;59999;51.676;22.650;2022-09-03T13:01:45;5.00;;;1.67;;
72125;SDS011;59999;51.676;22.650;2022-09-03T13:04:16;4.63;;;1.40;;
72125;SDS011;59999;51.676;22.650;2022-09-03T13:06:48;4.68;;;1.30;;
72125;SDS011;59999;51.676;22.650;2022-09-03T13:09:15;6.47;;;1.40;;
72125;SDS011;59999;51.676;22.650;2022-09-03T13:11:48;4.55;;;1.63;;
72125;SDS011;59999;51.676;22.650;2022-09-03T13:14:16;4.23;;;1.40;;
72125;SDS011;59999;51.676;22.650;2022-09-03T13:22:17;3.85;;;1.48;;
72125;SDS011;59999;51.676;22.650;2022-09-03T13:25:13;4.38;;;1.60;;
72125;SDS011;59999;51.676;22.650;2022-09-03T13:33:31;4.30;;;1.60;;
72125;SDS011;59999;51.676;22.650;2022-09-03T13:36:02;5.88;;;1.83;;
72125;SDS011;59999;51.676;22.650;2022-09-03T13:38:42;5.65;;;2.00;;
72125;SDS011;59999;51.676;22.650;2022-09-03T13:41:45;5.40;;;1.90;;
72125;SDS011;59999;51.676;22.650;2022-09-03T13:47:42;4.68;;;1.48;;
72125;SDS011;59999;51.676;22.650;2022-09-03T13:53:08;5.97;;;1.80;;
72125;SDS011;59999;51.676;22.650;2022-09-03T13:55:40;5.60;;;1.87;;
72125;SDS011;59999;51.676;22.650;2022-09-03T13:58:43;6.53;;;2.20;;
72125;SDS011;59999;51.676;22.650;2022-09-03T14:12:04;9.35;;;2.10;;
72125;SDS011;59999;51.676;22.650;2022-09-03T14:14:44;5.40;;;2.03;;
72125;SDS011;59999;51.676;22.650;2022-09-03T14:17:14;7.38;;;2.97;;
72125;SDS011;59999;51.676;22.650;2022-09-03T14:19:47;7.70;;;2.80;;
72125;SDS011;59999;51.676;22.650;2022-09-03T14:22:38;6.30;;;2.90;;
72125;SDS011;59999;51.676;22.650;2022-09-03T14:25:23;8.50;;;3.63;;
72125;SDS011;59999;51.676;22.650;2022-09-03T14:27:50;8.75;;;3.83;;
72125;SDS011;59999;51.676;22.650;2022-09-03T14:31:02;8.88;;;3.83;;
72125;SDS011;59999;51.676;22.650;2022-09-03T14:33:19;7.72;;;3.90;;
72125;SDS011;59999;51.676;22.650;2022-09-03T14:44:26;6.18;;;2.63;;
72125;SDS011;59999;51.676;22.650;2022-09-03T14:56:04;10.80;;;4.65;;
72125;SDS011;59999;51.676;22.650;2022-09-03T15:01:35;9.85;;;5.10;;
72125;SDS011;59999;51.676;22.650;2022-09-03T15:09:58;9.20;;;4.60;;
72125;SDS011;59999;51.676;22.650;2022-09-03T15:12:39;10.73;;;5.25;;
72125;SDS011;59999;51.676;22.650;2022-09-03T15:15:18;8.90;;;4.88;;
72125;SDS011;59999;51.676;22.650;2022-09-03T15:23:05;9.05;;;5.05;;
72125;SDS011;59999;51.676;22.650;2022-09-03T15:25:44;10.35;;;5.38;;
72125;SDS011;59999;51.676;22.650;2022-09-03T15:32:01;9.87;;;6.23;;
72125;SDS011;59999;51.676;22.650;2022-09-03T15:34:40;10.45;;;6.38;;
72125;SDS011;59999;51.676;22.650;2022-09-03T15:37:56;12.88;;;7.20;;
72125;SDS011;59999;51.676;22.650;2022-09-03T15:40:33;11.32;;;6.40;;
72125;SDS011;59999;51.676;22.650;2022-09-03T15:43:04;12.05;;;6.82;;
72125;SDS011;59999;51.676;22.650;2022-09-03T15:45:54;11.23;;;6.17;;
72125;SDS011;59999;51.676;22.650;2022-09-03T15:48:36;10.65;;;5.93;;
72125;SDS011;59999;51.676;22.650;2022-09-03T15:51:16;10.27;;;5.72;;
72125;SDS011;59999;51.676;22.650;2022-09-03T15:59:29;12.33;;;6.10;;
72125;SDS011;59999;51.676;22.650;2022-09-03T16:02:24;9.98;;;5.65;;
72125;SDS011;59999;51.676;22.650;2022-09-03T16:10:36;10.18;;;5.68;;
72125;SDS011;59999;51.676;22.650;2022-09-03T16:13:23;11.43;;;5.47;;
72125;SDS011;59999;51.676;22.650;2022-09-03T16:24:19;9.80;;;5.65;;
72125;SDS011;59999;51.676;22.650;2022-09-03T16:26:55;10.70;;;6.20;;
72125;SDS011;59999;51.676;22.650;2022-09-03T16:29:29;10.23;;;6.57;;
72125;SDS011;59999;51.676;22.650;2022-09-03T16:35:06;12.98;;;6.72;;
72125;SDS011;59999;51.676;22.650;2022-09-03T16:48:40;13.48;;;5.72;;
72125;SDS011;59999;51.676;22.650;2022-09-03T16:51:38;11.43;;;6.00;;
72125;SDS011;59999;51.676;22.650;2022-09-03T16:54:29;14.40;;;7.27;;
72125;SDS011;59999;51.676;22.650;2022-09-03T16:57:17;11.57;;;6.95;;
72125;SDS011;59999;51.676;22.650;2022-09-03T17:02:40;12.80;;;6.60;;
72125;SDS011;59999;51.676;22.650;2022-09-03T17:08:39;10.83;;;5.30;;
72125;SDS011;59999;51.676;22.650;2022-09-03T17:21:48;11.57;;;5.30;;
72125;SDS011;59999;51.676;22.650;2022-09-03T17:32:52;12.97;;;5.30;;
72125;SDS011;59999;51.676;22.650;2022-09-03T17:35:37;10.75;;;4.90;;
72125;SDS011;59999;51.676;22.650;2022-09-03T17:38:21;13.70;;;6.57;;
72125;SDS011;59999;51.676;22.650;2022-09-03T17:46:53;16.73;;;8.43;;
72125;SDS011;59999;51.676;22.650;2022-09-03T17:49:26;17.60;;;7.63;;
72125;SDS011;59999;51.676;22.650;2022-09-03T17:55:01;20.27;;;8.20;;
72125;SDS011;59999;51.676;22.650;2022-09-03T18:03:46;14.90;;;7.30;;
72125;SDS011;59999;51.676;22.650;2022-09-03T18:06:19;16.52;;;7.03;;
72125;SDS011;59999;51.676;22.650;2022-09-03T18:08:54;20.13;;;8.65;;
72125;SDS011;59999;51.676;22.650;2022-09-03T18:11:33;28.25;;;10.30;;
72125;SDS011;59999;51.676;22.650;2022-09-03T18:22:19;23.80;;;10.68;;
72125;SDS011;59999;51.676;22.650;2022-09-03T18:25:08;21.95;;;10.82;;
72125;SDS011;59999;51.676;22.650;2022-09-03T18:27:57;17.17;;;8.73;;
72125;SDS011;59999;51.676;22.650;2022-09-03T18:30:47;19.92;;;8.68;;
72125;SDS011;59999;51.676;22.650;2022-09-03T18:33:31;16.08;;;8.45;;
72125;SDS011;59999;51.676;22.650;2022-09-03T18:36:15;19.30;;;7.82;;
72125;SDS011;59999;51.676;22.650;2022-09-03T18:39:13;16.13;;;7.85;;
72125;SDS011;59999;51.676;22.650;2022-09-03T18:42:05;22.40;;;9.80;;
72125;SDS011;59999;51.676;22.650;2022-09-03T18:45:15;23.52;;;9.07;;
72125;SDS011;59999;51.676;22.650;2022-09-03T18:54:26;13.90;;;6.78;;
72125;SDS011;59999;51.676;22.650;2022-09-03T18:57:56;20.50;;;7.80;;
72125;SDS011;59999;51.676;22.650;2022-09-03T19:00:48;16.90;;;7.38;;
72125;SDS011;59999;51.676;22.650;2022-09-03T19:03:48;13.38;;;6.55;;
72125;SDS011;59999;51.676;22.650;2022-09-03T19:06:37;15.25;;;7.82;;
72125;SDS011;59999;51.676;22.650;2022-09-03T19:09:36;18.80;;;8.00;;
72125;SDS011;59999;51.676;22.650;2022-09-03T19:12:47;19.33;;;8.17;;
72125;SDS011;59999;51.676;22.650;2022-09-03T19:19:03;16.85;;;7.85;;
72125;SDS011;59999;51.676;22.650;2022-09-03T19:22:00;18.55;;;8.15;;
72125;SDS011;59999;51.676;22.650;2022-09-03T19:24:53;16.40;;;7.22;;
72125;SDS011;59999;51.676;22.650;2022-09-03T19:31:26;20.23;;;8.15;;
72125;SDS011;59999;51.676;22.650;2022-09-03T19:37:20;14.50;;;7.32;;
72125;SDS011;59999;51.676;22.650;2022-09-03T19:43:35;17.57;;;7.80;;